createdAt,value
2019-04-03T00:00:38.145Z,14.30
2019-04-03T00:03:06.607Z,14.30
2019-04-03T00:05:35.443Z,14.40
2019-04-03T00:08:06.445Z,14.30
2019-04-03T00:10:36.015Z,14.40
2019-04-03T00:13:05.443Z,14.40
2019-04-03T00:15:33.916Z,14.30
2019-04-03T00:18:02.357Z,14.20
2019-04-03T00:20:30.777Z,14.10
2019-04-03T00:22:59.192Z,14.10
2019-04-03T00:25:27.780Z,14.10
2019-04-03T00:27:56.182Z,14.10
2019-04-03T00:30:24.748Z,14.20
2019-04-03T00:32:54.042Z,14.10
2019-04-03T00:35:23.517Z,14.10
2019-04-03T00:37:53.612Z,14.10
2019-04-03T00:40:24.028Z,14.10
2019-04-03T00:42:54.038Z,14.10
2019-04-03T00:45:24.538Z,14.10
2019-04-03T00:47:55.282Z,14.00
2019-04-03T00:50:22.949Z,13.90
2019-04-03T00:52:51.353Z,13.90
2019-04-03T00:55:19.845Z,13.90
2019-04-03T00:57:48.245Z,13.90
2019-04-03T01:00:16.933Z,14.00
2019-04-03T01:02:45.437Z,14.00
2019-04-03T01:05:14.023Z,14.00
2019-04-03T01:07:42.782Z,13.90
2019-04-03T01:10:11.553Z,13.80
2019-04-03T01:12:40.273Z,13.70
2019-04-03T01:15:08.837Z,13.40
2019-04-03T01:17:37.335Z,13.30
2019-04-03T01:20:07.030Z,13.20
2019-04-03T01:22:37.118Z,13.20
2019-04-03T01:25:08.290Z,13.10
2019-04-03T01:27:36.902Z,13.10
2019-04-03T01:30:07.087Z,13.20
2019-04-03T01:32:35.622Z,13.10
2019-04-03T01:35:04.925Z,13.10
2019-04-03T01:37:33.341Z,13.00
2019-04-03T01:40:02.045Z,12.80
2019-04-03T01:42:30.696Z,12.80
2019-04-03T01:44:59.373Z,12.80
2019-04-03T01:47:28.159Z,12.70
2019-04-03T01:49:58.773Z,12.70
2019-04-03T01:52:27.083Z,12.70
2019-04-03T01:54:55.508Z,12.70
2019-04-03T01:57:24.022Z,12.80
2019-04-03T01:59:52.435Z,12.70
2019-04-03T02:02:20.857Z,12.60
2019-04-03T02:04:49.297Z,12.60
2019-04-03T02:07:17.697Z,12.70
2019-04-03T02:09:46.613Z,12.70
2019-04-03T02:12:15.495Z,12.80
2019-04-03T02:14:43.959Z,12.80
2019-04-03T02:17:12.528Z,12.90
2019-04-03T02:19:41.047Z,12.90
2019-04-03T02:22:09.473Z,12.70
2019-04-03T02:24:37.927Z,12.50
2019-04-03T02:27:06.362Z,12.50
2019-04-03T02:29:34.835Z,12.40
2019-04-03T02:32:03.300Z,12.30
2019-04-03T02:34:34.854Z,12.20
2019-04-03T02:37:02.329Z,12.10
2019-04-03T02:39:31.081Z,12.00
2019-04-03T02:41:59.675Z,12.00
2019-04-03T02:44:28.154Z,12.10
2019-04-03T02:46:59.717Z,12.00
2019-04-03T02:49:26.784Z,12.00
2019-04-03T02:51:55.615Z,12.10
2019-04-03T02:54:28.900Z,12.10
2019-04-03T02:56:58.728Z,12.20
2019-04-03T02:59:27.651Z,12.30
2019-04-03T03:01:56.305Z,12.20
2019-04-03T03:04:25.448Z,12.00
2019-04-03T03:06:53.940Z,11.90
2019-04-03T03:09:22.849Z,11.90
2019-04-03T03:11:54.892Z,12.00
2019-04-03T03:14:22.874Z,12.00
2019-04-03T03:16:52.131Z,12.10
2019-04-03T03:19:22.376Z,12.20
2019-04-03T03:21:52.826Z,12.10
2019-04-03T03:24:22.075Z,12.00
2019-04-03T03:26:51.161Z,12.00
2019-04-03T03:29:25.243Z,12.00
2019-04-03T03:32:14.914Z,11.90
2019-04-03T03:34:45.842Z,11.90
2019-04-03T03:36:58.617Z,11.90
2019-04-03T03:39:24.234Z,12.00
2019-04-03T03:41:56.145Z,12.10
2019-04-03T03:44:23.676Z,12.10
2019-04-03T03:46:53.981Z,12.10
2019-04-03T03:49:24.439Z,12.20
2019-04-03T03:51:53.243Z,12.30
2019-04-03T03:54:21.855Z,12.30
2019-04-03T03:56:50.909Z,12.40
2019-04-03T03:59:19.896Z,12.30
2019-04-03T04:01:49.237Z,12.10
2019-04-03T04:04:17.667Z,11.90
2019-04-03T04:06:47.342Z,11.70
2019-04-03T04:09:17.917Z,11.70
2019-04-03T04:11:46.496Z,11.60
2019-04-03T04:14:15.430Z,11.70
2019-04-03T04:16:44.245Z,11.70
2019-04-03T04:19:13.420Z,11.80
2019-04-03T04:21:44.365Z,11.80
2019-04-03T04:24:12.920Z,11.80
2019-04-03T04:26:41.863Z,11.90
2019-04-03T04:29:11.393Z,11.90
2019-04-03T04:31:40.053Z,11.90
2019-04-03T04:34:08.482Z,11.80
2019-04-03T04:36:36.901Z,11.80
2019-04-03T04:39:08.385Z,11.70
2019-04-03T04:41:37.118Z,11.60
2019-04-03T04:44:05.702Z,11.50
2019-04-03T04:46:34.109Z,11.40
2019-04-03T04:49:02.763Z,11.30
2019-04-03T04:51:31.245Z,11.30
2019-04-03T04:54:00.370Z,11.20
2019-04-03T04:56:28.990Z,11.30
2019-04-03T04:58:57.413Z,11.30
2019-04-03T05:01:25.941Z,11.30
2019-04-03T05:03:54.654Z,11.30
2019-04-03T05:06:23.407Z,11.30
2019-04-03T05:08:51.935Z,11.40
2019-04-03T05:11:20.564Z,11.40
2019-04-03T05:13:49.064Z,11.40
2019-04-03T05:16:20.168Z,11.50
2019-04-03T05:18:47.793Z,11.50
2019-04-03T05:21:16.543Z,11.40
2019-04-03T05:23:45.025Z,11.20
2019-04-03T05:26:13.474Z,11.10
2019-04-03T05:28:54.252Z,11.10
2019-04-03T05:31:12.291Z,11.10
2019-04-03T05:33:42.258Z,11.20
2019-04-03T05:36:10.897Z,11.20
2019-04-03T05:38:39.342Z,11.20
2019-04-03T05:41:07.754Z,11.10
2019-04-03T05:43:36.187Z,11.20
2019-04-03T05:46:05.645Z,11.10
2019-04-03T05:48:34.767Z,11.20
2019-04-03T05:51:03.239Z,11.30
2019-04-03T05:53:31.697Z,11.20
2019-04-03T05:56:00.121Z,11.20
2019-04-03T05:58:29.828Z,11.30
2019-04-03T06:01:04.907Z,11.30
2019-04-03T06:03:39.172Z,11.30
2019-04-03T06:05:58.703Z,11.20
2019-04-03T06:08:27.155Z,11.10
2019-04-03T06:10:56.204Z,11.00
2019-04-03T06:13:24.755Z,11.10
2019-04-03T06:15:53.765Z,11.20
2019-04-03T06:18:24.076Z,11.30
2019-04-03T06:20:52.911Z,11.40
2019-04-03T06:23:22.010Z,11.50
2019-04-03T06:25:50.892Z,11.50
2019-04-03T06:28:19.305Z,11.50
2019-04-03T06:30:47.739Z,11.60
2019-04-03T06:33:16.643Z,11.70
2019-04-03T06:35:46.008Z,11.90
2019-04-03T06:38:14.731Z,12.00
2019-04-03T06:40:43.205Z,12.20
2019-04-03T06:43:11.678Z,12.20
2019-04-03T06:45:43.057Z,12.30
2019-04-03T06:48:10.664Z,12.30
2019-04-03T06:50:39.249Z,12.40
2019-04-03T06:53:07.678Z,12.30
2019-04-03T06:55:36.615Z,12.20
2019-04-03T06:58:05.292Z,12.20
2019-04-03T07:00:33.869Z,12.20
2019-04-03T07:03:03.852Z,12.30
2019-04-03T07:05:32.699Z,12.50
2019-04-03T07:08:01.380Z,12.70
2019-04-03T07:10:31.475Z,13.00
2019-04-03T07:13:00.134Z,13.30
2019-04-03T07:15:28.585Z,13.60
2019-04-03T07:17:57.306Z,13.90
2019-04-03T07:20:25.726Z,14.20
2019-04-03T07:22:54.213Z,14.70
2019-04-03T07:25:22.693Z,15.20
2019-04-03T07:27:51.202Z,15.70
2019-04-03T07:30:21.412Z,16.10
2019-04-03T07:32:50.235Z,16.40
2019-04-03T07:35:18.726Z,16.60
2019-04-03T07:37:47.141Z,16.70
2019-04-03T07:40:18.699Z,16.70
2019-04-03T07:42:48.739Z,16.60
2019-04-03T07:45:17.640Z,16.10
2019-04-03T07:47:46.043Z,16.00
2019-04-03T07:50:15.501Z,16.20
2019-04-03T07:52:43.938Z,16.30
2019-04-03T07:55:12.470Z,16.10
2019-04-03T07:57:41.593Z,16.40
2019-04-03T08:00:11.112Z,16.30
2019-04-03T08:02:39.794Z,16.20
2019-04-03T08:05:11.396Z,16.40
2019-04-03T08:07:39.791Z,16.60
2019-04-03T08:10:09.179Z,16.30
2019-04-03T08:12:37.661Z,16.40
2019-04-03T08:15:08.116Z,16.70
2019-04-03T08:17:37.070Z,16.50
2019-04-03T08:20:08.158Z,16.50
2019-04-03T08:22:36.907Z,16.80
2019-04-03T08:25:10.614Z,16.50
2019-04-03T08:27:38.062Z,16.70
2019-04-03T08:30:08.887Z,17.00
2019-04-03T08:32:37.678Z,17.20
2019-04-03T08:35:19.412Z,17.40
2019-04-03T08:37:40.606Z,17.90
2019-04-03T08:40:08.971Z,18.20
2019-04-03T08:42:37.412Z,18.60
2019-04-03T08:45:10.488Z,18.80
2019-04-03T08:47:39.159Z,18.00
2019-04-03T08:50:11.889Z,18.10
2019-04-03T08:52:40.896Z,18.20
2019-04-03T08:55:12.689Z,18.50
2019-04-03T08:57:40.210Z,18.20
2019-04-03T09:00:09.795Z,17.70
2019-04-03T09:02:38.936Z,17.60
2019-04-03T09:05:07.826Z,18.00
2019-04-03T09:07:36.492Z,17.90
2019-04-03T09:10:09.097Z,18.00
2019-04-03T09:12:38.451Z,17.70
2019-04-03T09:15:07.995Z,17.60
2019-04-03T09:17:36.649Z,17.80
2019-04-03T09:20:06.691Z,18.20
2019-04-03T09:22:35.367Z,18.00
2019-04-03T09:25:06.015Z,17.50
2019-04-03T09:27:34.749Z,17.70
2019-04-03T09:30:05.178Z,17.90
2019-04-03T09:32:36.363Z,18.10
2019-04-03T09:35:04.900Z,18.30
2019-04-03T09:37:37.172Z,18.60
2019-04-03T09:40:04.890Z,18.60
2019-04-03T09:42:33.483Z,18.60
2019-04-03T09:45:08.368Z,18.40
2019-04-03T09:47:36.961Z,18.20
2019-04-03T09:50:07.571Z,18.60
2019-04-03T09:52:42.694Z,19.00
2019-04-03T09:55:06.631Z,19.10
2019-04-03T09:57:35.363Z,19.50
2019-04-03T10:00:09.531Z,19.00
2019-04-03T10:02:37.257Z,18.90
2019-04-03T10:05:07.510Z,19.20
2019-04-03T10:07:36.992Z,19.50
2019-04-03T10:10:07.609Z,19.50
2019-04-03T10:12:36.171Z,19.40
2019-04-03T10:15:07.479Z,19.40
2019-04-03T10:17:37.480Z,19.20
2019-04-03T10:20:08.107Z,19.00
2019-04-03T10:22:36.654Z,18.90
2019-04-03T10:25:07.491Z,18.80
2019-04-03T10:27:36.278Z,18.60
2019-04-03T10:30:07.769Z,19.10
2019-04-03T10:32:36.223Z,19.20
2019-04-03T10:35:07.288Z,18.70
2019-04-03T10:37:36.857Z,18.90
2019-04-03T10:40:07.519Z,18.60
2019-04-03T10:42:36.156Z,18.60
2019-04-03T10:45:07.148Z,18.70
2019-04-03T10:47:42.387Z,18.50
2019-04-03T10:50:07.228Z,18.50
2019-04-03T10:52:35.784Z,17.90
2019-04-03T10:55:06.230Z,17.90
2019-04-03T10:57:35.341Z,18.00
2019-04-03T11:00:08.725Z,18.10
2019-04-03T11:02:37.213Z,18.20
2019-04-03T11:05:09.335Z,18.10
2019-04-03T11:07:37.900Z,17.80
2019-04-03T11:10:07.741Z,17.90
2019-04-03T11:12:36.514Z,18.00
2019-04-03T11:15:11.576Z,18.30
2019-04-03T11:17:39.536Z,18.40
2019-04-03T11:20:10.191Z,18.30
2019-04-03T11:22:41.592Z,18.30
2019-04-03T11:25:14.005Z,18.20
2019-04-03T11:27:43.580Z,18.40
2019-04-03T11:30:17.352Z,18.40
2019-04-03T11:32:43.101Z,18.20
2019-04-03T11:35:12.198Z,18.40
2019-04-03T11:37:40.612Z,18.50
2019-04-03T11:40:09.861Z,18.60
2019-04-03T11:42:38.297Z,18.50
2019-04-03T11:45:07.980Z,18.50
2019-04-03T11:47:36.533Z,18.70
2019-04-03T11:50:09.598Z,18.80
2019-04-03T11:52:38.434Z,18.90
2019-04-03T11:55:10.004Z,18.80
2019-04-03T11:57:38.033Z,18.90
2019-04-03T12:00:19.102Z,19.00
2019-04-03T12:02:47.935Z,19.10
2019-04-03T12:05:20.828Z,19.00
2019-04-03T12:07:47.959Z,18.70
2019-04-03T12:10:16.822Z,18.60
2019-04-03T12:12:45.314Z,18.90
2019-04-03T12:15:16.205Z,18.90
2019-04-03T12:17:44.686Z,18.90
2019-04-03T12:20:15.331Z,18.90
2019-04-03T12:22:43.431Z,18.90
2019-04-03T12:25:11.962Z,19.10
2019-04-03T12:27:40.483Z,19.10
2019-04-03T12:30:09.443Z,19.10
2019-04-03T12:32:42.915Z,19.10
2019-04-03T12:35:09.727Z,19.10
2019-04-03T12:37:38.540Z,18.90
2019-04-03T12:40:07.588Z,18.80
2019-04-03T12:42:36.734Z,18.90
2019-04-03T12:45:08.409Z,18.90
2019-04-03T12:47:37.088Z,19.10
2019-04-03T12:50:07.523Z,19.40
2019-04-03T12:52:36.613Z,19.50
2019-04-03T12:55:07.466Z,19.50
2019-04-03T12:57:38.805Z,19.20
2019-04-03T13:00:11.472Z,19.30
2019-04-03T13:02:40.151Z,19.20
2019-04-03T13:05:09.060Z,19.20
2019-04-03T13:07:37.598Z,19.00
2019-04-03T13:10:09.991Z,18.90
2019-04-03T13:12:38.558Z,19.00
2019-04-03T13:15:11.632Z,18.90
2019-04-03T13:17:42.876Z,18.90
2019-04-03T13:20:11.281Z,19.20
2019-04-03T13:22:41.970Z,19.40
2019-04-03T13:25:10.718Z,19.50
2019-04-03T13:27:39.679Z,19.40
2019-04-03T13:30:12.413Z,19.40
2019-04-03T13:32:40.685Z,19.60
2019-04-03T13:35:10.227Z,19.40
2019-04-03T13:37:38.875Z,19.20
2019-04-03T13:40:09.311Z,19.40
2019-04-03T13:42:37.796Z,19.40
2019-04-03T13:45:10.705Z,19.40
2019-04-03T13:47:41.141Z,19.30
2019-04-03T13:50:09.991Z,19.40
2019-04-03T13:52:42.519Z,19.30
2019-04-03T13:55:09.099Z,19.40
2019-04-03T13:57:38.559Z,19.30
2019-04-03T14:00:18.307Z,19.40
2019-04-03T14:02:39.998Z,19.50
2019-04-03T14:05:09.685Z,19.60
2019-04-03T14:07:41.698Z,19.70
2019-04-03T14:10:11.149Z,19.70
2019-04-03T14:12:43.679Z,19.80
2019-04-03T14:15:09.898Z,19.60
2019-04-03T14:17:38.553Z,19.60
2019-04-03T14:20:08.541Z,19.60
2019-04-03T14:22:37.818Z,19.60
2019-04-03T14:25:18.335Z,19.30
2019-04-03T14:27:37.543Z,19.30
2019-04-03T14:30:11.636Z,19.40
2019-04-03T14:32:38.646Z,19.50
2019-04-03T14:35:38.213Z,19.50
2019-04-03T14:37:37.958Z,19.60
2019-04-03T14:40:10.978Z,19.60
2019-04-03T14:42:39.857Z,19.60
2019-04-03T14:45:09.112Z,19.60
2019-04-03T14:47:37.794Z,19.70
2019-04-03T14:50:07.241Z,19.60
2019-04-03T14:52:42.029Z,19.70
2019-04-03T14:55:18.027Z,19.60
2019-04-03T14:57:41.387Z,19.60
2019-04-03T15:00:24.791Z,19.70
2019-04-03T15:02:41.435Z,19.60
2019-04-03T15:05:10.678Z,19.60
2019-04-03T15:07:40.345Z,19.70
2019-04-03T15:10:09.706Z,19.60
2019-04-03T15:12:39.913Z,19.70
2019-04-03T15:15:09.747Z,19.80
2019-04-03T15:17:38.939Z,20.00
2019-04-03T15:20:09.464Z,19.90
2019-04-03T15:22:38.245Z,19.80
2019-04-03T15:25:07.904Z,19.80
2019-04-03T15:27:36.389Z,19.80
2019-04-03T15:30:10.487Z,19.90
2019-04-03T15:32:37.684Z,19.80
2019-04-03T15:35:08.076Z,19.70
2019-04-03T15:37:40.127Z,19.60
2019-04-03T15:40:07.348Z,19.60
2019-04-03T15:42:38.462Z,19.60
2019-04-03T15:45:10.105Z,19.60
2019-04-03T15:47:44.124Z,19.50
2019-04-03T15:50:11.988Z,19.40
2019-04-03T15:52:43.144Z,19.40
2019-04-03T15:55:11.014Z,19.30
2019-04-03T15:57:40.661Z,19.30
2019-04-03T16:00:12.561Z,19.30
2019-04-03T16:02:44.514Z,19.40
2019-04-03T16:05:13.381Z,19.50
2019-04-03T16:07:42.690Z,19.50
2019-04-03T16:10:11.746Z,19.40
2019-04-03T16:12:42.796Z,19.30
2019-04-03T16:15:10.601Z,19.30
2019-04-03T16:17:39.669Z,19.30
2019-04-03T16:20:09.025Z,19.30
2019-04-03T16:22:37.444Z,19.30
2019-04-03T16:25:09.247Z,19.30
2019-04-03T16:27:38.018Z,19.30
2019-04-03T16:30:08.509Z,19.30
2019-04-03T16:32:37.641Z,19.30
2019-04-03T16:35:07.713Z,19.30
2019-04-03T16:37:36.355Z,19.30
2019-04-03T16:40:08.019Z,19.20
2019-04-03T16:42:37.069Z,19.10
2019-04-03T16:45:11.035Z,19.10
2019-04-03T16:47:45.003Z,19.00
2019-04-03T16:50:13.244Z,19.00
2019-04-03T16:52:41.677Z,19.00
2019-04-03T16:55:10.158Z,18.90
2019-04-03T16:57:38.585Z,18.90
2019-04-03T17:00:09.524Z,18.90
2019-04-03T17:02:38.525Z,18.90
2019-04-03T17:05:10.728Z,18.80
2019-04-03T17:07:39.236Z,18.80
2019-04-03T17:10:10.046Z,18.70
2019-04-03T17:12:38.318Z,18.60
2019-04-03T17:15:08.822Z,18.40
2019-04-03T17:17:37.664Z,18.40
2019-04-03T17:20:08.105Z,18.30
2019-04-03T17:22:38.896Z,18.30
2019-04-03T17:25:09.088Z,18.20
2019-04-03T17:27:37.784Z,18.10
2019-04-03T17:30:08.227Z,18.10
2019-04-03T17:32:36.695Z,18.00
2019-04-03T17:35:07.731Z,18.00
2019-04-03T17:37:36.828Z,17.90
2019-04-03T17:40:11.799Z,17.90
2019-04-03T17:42:40.407Z,17.90
2019-04-03T17:45:09.411Z,17.70
2019-04-03T17:47:37.892Z,17.70
2019-04-03T17:50:07.560Z,17.60
2019-04-03T17:52:36.913Z,17.60
2019-04-03T17:55:11.505Z,17.50
2019-04-03T17:57:39.908Z,17.50
2019-04-03T18:00:20.923Z,17.40
2019-04-03T18:02:50.673Z,17.40
2019-04-03T18:05:19.234Z,17.30
2019-04-03T18:07:47.760Z,17.20
2019-04-03T18:10:17.753Z,17.20
2019-04-03T18:12:46.201Z,17.20
2019-04-03T18:15:15.699Z,17.10
2019-04-03T18:17:44.662Z,17.00
2019-04-03T18:20:13.621Z,17.00
2019-04-03T18:22:42.037Z,17.00
2019-04-03T18:25:10.817Z,17.00
2019-04-03T18:27:39.222Z,16.90
2019-04-03T18:30:11.872Z,16.90
2019-04-03T18:32:39.736Z,16.90
2019-04-03T18:35:09.060Z,16.80
2019-04-03T18:37:40.479Z,16.40
2019-04-03T18:40:09.558Z,15.20
2019-04-03T18:42:38.079Z,14.90
2019-04-03T18:45:06.826Z,14.50
2019-04-03T18:47:41.242Z,14.20
2019-04-03T18:50:09.637Z,13.90
2019-04-03T18:52:38.557Z,13.60
2019-04-03T18:55:07.543Z,13.10
2019-04-03T18:57:35.994Z,12.70
2019-04-03T19:00:09.098Z,12.30
2019-04-03T19:02:37.918Z,12.10
2019-04-03T19:05:13.846Z,11.90
2019-04-03T19:07:42.131Z,11.50
2019-04-03T19:10:10.891Z,11.30
2019-04-03T19:12:43.710Z,11.20
2019-04-03T19:15:12.906Z,11.10
2019-04-03T19:17:41.460Z,11.00
2019-04-03T19:20:11.343Z,10.90
2019-04-03T19:22:40.212Z,10.60
2019-04-03T19:25:09.763Z,10.50
2019-04-03T19:27:41.665Z,10.30
2019-04-03T19:30:10.441Z,10.30
2019-04-03T19:32:39.021Z,10.30
2019-04-03T19:35:09.474Z,10.30
2019-04-03T19:37:38.379Z,10.20
2019-04-03T19:40:09.667Z,10.20
2019-04-03T19:42:39.050Z,10.10
2019-04-03T19:45:08.858Z,10.10
2019-04-03T19:47:37.275Z,10.10
2019-04-03T19:50:07.933Z,10.10
2019-04-03T19:52:37.401Z,10.00
2019-04-03T19:55:08.122Z,10.00
2019-04-03T19:57:36.690Z,10.00
2019-04-03T20:00:07.462Z,9.90
2019-04-03T20:02:38.074Z,9.70
2019-04-03T20:05:07.746Z,9.70
2019-04-03T20:07:36.988Z,9.60
2019-04-03T20:10:08.608Z,9.50
2019-04-03T20:12:37.691Z,9.50
2019-04-03T20:15:08.265Z,9.50
2019-04-03T20:17:36.701Z,9.60
2019-04-03T20:20:07.474Z,9.60
2019-04-03T20:22:38.229Z,9.50
2019-04-03T20:25:06.435Z,9.50
2019-04-03T20:27:35.152Z,9.50
2019-04-03T20:30:06.053Z,9.40
2019-04-03T20:32:34.565Z,9.20
2019-04-03T20:35:03.034Z,9.00
2019-04-03T20:37:34.740Z,9.00
2019-04-03T20:40:07.266Z,9.10
2019-04-03T20:42:35.938Z,9.00
2019-04-03T20:45:06.702Z,9.00
2019-04-03T20:47:35.524Z,9.00
2019-04-03T20:50:07.890Z,8.80
2019-04-03T20:52:36.361Z,8.80
2019-04-03T20:55:06.561Z,8.90
2019-04-03T20:57:35.050Z,8.90
2019-04-03T21:00:08.421Z,8.90
2019-04-03T21:02:36.845Z,8.90
2019-04-03T21:05:07.774Z,8.80
2019-04-03T21:07:36.303Z,8.70
2019-04-03T21:10:07.215Z,8.70
2019-04-03T21:12:35.826Z,8.70
2019-04-03T21:15:08.652Z,8.80
2019-04-03T21:17:35.801Z,8.80
2019-04-03T21:20:05.885Z,8.60
2019-04-03T21:22:34.317Z,8.70
2019-04-03T21:25:04.919Z,8.70
2019-04-03T21:27:32.897Z,8.70
2019-04-03T21:30:01.309Z,8.70
2019-04-03T21:32:30.141Z,8.70
2019-04-03T21:34:58.549Z,8.60
2019-04-03T21:37:26.974Z,8.60
2019-04-03T21:39:55.690Z,8.70
2019-04-03T21:42:25.000Z,8.70
2019-04-03T21:44:56.968Z,8.70
2019-04-03T21:47:25.390Z,8.60
2019-04-03T21:49:53.792Z,8.60
2019-04-03T21:52:22.762Z,8.70
2019-04-03T21:54:51.822Z,8.60
2019-04-03T21:57:20.255Z,8.50
2019-04-03T21:59:48.657Z,8.50
2019-04-03T22:02:17.146Z,8.50
2019-04-03T22:04:45.567Z,8.30
2019-04-03T22:07:14.019Z,8.30
2019-04-03T22:09:42.421Z,8.30
2019-04-03T22:12:10.876Z,8.30
2019-04-03T22:14:39.301Z,8.20
2019-04-03T22:17:09.377Z,8.00
2019-04-03T22:19:37.787Z,7.90
2019-04-03T22:22:06.631Z,7.90
2019-04-03T22:24:37.437Z,8.00
2019-04-03T22:27:05.197Z,8.00
2019-04-03T22:29:33.605Z,8.00
2019-04-03T22:32:02.076Z,7.90
2019-04-03T22:34:30.572Z,7.80
2019-04-03T22:36:59.006Z,7.70
2019-04-03T22:39:27.427Z,7.60
2019-04-03T22:41:55.893Z,7.70
2019-04-03T22:44:24.370Z,7.80
2019-04-03T22:46:54.019Z,7.70
2019-04-03T22:49:23.138Z,7.80
2019-04-03T22:51:51.551Z,7.80
2019-04-03T22:54:20.011Z,7.70
2019-04-03T22:56:48.433Z,7.80
2019-04-03T22:59:16.930Z,8.00
2019-04-03T23:01:45.356Z,8.00
2019-04-03T23:04:13.818Z,8.00
2019-04-03T23:06:42.237Z,8.00
2019-04-03T23:09:10.657Z,8.00
2019-04-03T23:11:39.094Z,8.00
2019-04-03T23:14:07.643Z,8.00
2019-04-03T23:16:36.120Z,7.90
2019-04-03T23:19:04.554Z,7.90
2019-04-03T23:21:33.286Z,7.80
2019-04-03T23:24:01.701Z,7.80
2019-04-03T23:26:32.082Z,7.70
2019-04-03T23:29:00.277Z,7.70
2019-04-03T23:31:28.720Z,7.70
2019-04-03T23:33:57.137Z,7.70
2019-04-03T23:36:25.581Z,7.80
2019-04-03T23:38:56.724Z,7.80
2019-04-03T23:41:25.615Z,7.80
2019-04-03T23:43:54.054Z,7.80
2019-04-03T23:46:22.454Z,7.50
2019-04-03T23:48:50.874Z,7.60
2019-04-03T23:51:23.252Z,7.70
2019-04-03T23:53:49.736Z,7.80
2019-04-03T23:56:18.162Z,7.80
2019-04-03T23:58:46.666Z,8.00
